sensor_id;sensor_type;location;lat;lon;timestamp;P1;durP1;ratioP1;P2;durP2;ratioP2
31966;SDS011;18496;52.042;6.812;2023-11-18T00:00:59;38.65;;;19.48;;
31966;SDS011;18496;52.042;6.812;2023-11-18T00:03:02;40.63;;;18.58;;
31966;SDS011;18496;52.042;6.812;2023-11-18T00:05:06;40.83;;;17.73;;
31966;SDS011;18496;52.042;6.812;2023-11-18T00:07:10;47.20;;;19.65;;
31966;SDS011;18496;52.042;6.812;2023-11-18T00:09:14;43.97;;;18.45;;
31966;SDS011;18496;52.042;6.812;2023-11-18T00:11:18;40.53;;;19.35;;
31966;SDS011;18496;52.042;6.812;2023-11-18T00:13:21;37.53;;;17.55;;
31966;SDS011;18496;52.042;6.812;2023-11-18T00:15:25;41.75;;;17.67;;
31966;SDS011;18496;52.042;6.812;2023-11-18T00:17:29;47.58;;;18.95;;
31966;SDS011;18496;52.042;6.812;2023-11-18T00:19:33;33.80;;;16.00;;
31966;SDS011;18496;52.042;6.812;2023-11-18T00:21:39;41.22;;;18.88;;
31966;SDS011;18496;52.042;6.812;2023-11-18T00:23:43;42.72;;;18.60;;
31966;SDS011;18496;52.042;6.812;2023-11-18T00:25:48;41.90;;;19.75;;
31966;SDS011;18496;52.042;6.812;2023-11-18T00:27:52;35.75;;;16.45;;
31966;SDS011;18496;52.042;6.812;2023-11-18T00:29:56;47.95;;;19.73;;
31966;SDS011;18496;52.042;6.812;2023-11-18T00:32:02;45.33;;;18.95;;
31966;SDS011;18496;52.042;6.812;2023-11-18T00:34:08;45.10;;;18.10;;
31966;SDS011;18496;52.042;6.812;2023-11-18T00:36:11;44.58;;;19.08;;
31966;SDS011;18496;52.042;6.812;2023-11-18T00:38:15;40.88;;;18.90;;
31966;SDS011;18496;52.042;6.812;2023-11-18T00:40:19;48.28;;;20.27;;
31966;SDS011;18496;52.042;6.812;2023-11-18T00:42:23;44.13;;;18.30;;
31966;SDS011;18496;52.042;6.812;2023-11-18T00:44:26;46.97;;;20.40;;
31966;SDS011;18496;52.042;6.812;2023-11-18T00:46:30;48.35;;;19.15;;
31966;SDS011;18496;52.042;6.812;2023-11-18T00:48:34;53.30;;;20.90;;
31966;SDS011;18496;52.042;6.812;2023-11-18T00:50:37;50.05;;;21.02;;
31966;SDS011;18496;52.042;6.812;2023-11-18T00:52:41;49.05;;;19.98;;
31966;SDS011;18496;52.042;6.812;2023-11-18T00:54:45;54.20;;;21.90;;
31966;SDS011;18496;52.042;6.812;2023-11-18T00:56:49;52.28;;;22.70;;
31966;SDS011;18496;52.042;6.812;2023-11-18T00:58:52;51.80;;;20.73;;
31966;SDS011;18496;52.042;6.812;2023-11-18T01:00:56;57.28;;;22.35;;
31966;SDS011;18496;52.042;6.812;2023-11-18T01:03:00;56.67;;;23.23;;
31966;SDS011;18496;52.042;6.812;2023-11-18T01:05:03;64.05;;;23.00;;
31966;SDS011;18496;52.042;6.812;2023-11-18T01:07:08;50.63;;;21.50;;
31966;SDS011;18496;52.042;6.812;2023-11-18T01:09:12;55.10;;;21.35;;
31966;SDS011;18496;52.042;6.812;2023-11-18T01:11:16;60.17;;;23.30;;
31966;SDS011;18496;52.042;6.812;2023-11-18T01:13:23;53.50;;;21.80;;
31966;SDS011;18496;52.042;6.812;2023-11-18T01:15:29;53.88;;;22.58;;
31966;SDS011;18496;52.042;6.812;2023-11-18T01:17:35;54.22;;;22.33;;
31966;SDS011;18496;52.042;6.812;2023-11-18T01:19:39;60.17;;;23.50;;
31966;SDS011;18496;52.042;6.812;2023-11-18T01:21:43;55.70;;;21.48;;
31966;SDS011;18496;52.042;6.812;2023-11-18T01:23:47;54.28;;;22.55;;
31966;SDS011;18496;52.042;6.812;2023-11-18T01:25:52;51.42;;;19.98;;
31966;SDS011;18496;52.042;6.812;2023-11-18T01:27:56;58.05;;;22.85;;
31966;SDS011;18496;52.042;6.812;2023-11-18T01:30:00;53.03;;;21.30;;
31966;SDS011;18496;52.042;6.812;2023-11-18T01:32:05;55.17;;;23.02;;
31966;SDS011;18496;52.042;6.812;2023-11-18T01:34:12;59.47;;;21.98;;
31966;SDS011;18496;52.042;6.812;2023-11-18T01:36:16;60.80;;;23.13;;
31966;SDS011;18496;52.042;6.812;2023-11-18T01:38:21;52.28;;;21.80;;
31966;SDS011;18496;52.042;6.812;2023-11-18T01:40:25;53.25;;;22.48;;
31966;SDS011;18496;52.042;6.812;2023-11-18T01:42:29;55.47;;;22.95;;
31966;SDS011;18496;52.042;6.812;2023-11-18T01:44:34;62.83;;;24.10;;
31966;SDS011;18496;52.042;6.812;2023-11-18T01:46:38;60.33;;;23.42;;
31966;SDS011;18496;52.042;6.812;2023-11-18T01:48:42;65.18;;;24.48;;
31966;SDS011;18496;52.042;6.812;2023-11-18T01:50:46;61.40;;;23.70;;
31966;SDS011;18496;52.042;6.812;2023-11-18T01:52:50;62.05;;;24.50;;
31966;SDS011;18496;52.042;6.812;2023-11-18T01:54:56;66.43;;;24.33;;
31966;SDS011;18496;52.042;6.812;2023-11-18T01:57:00;61.17;;;24.10;;
31966;SDS011;18496;52.042;6.812;2023-11-18T01:59:09;60.70;;;24.05;;
31966;SDS011;18496;52.042;6.812;2023-11-18T02:01:13;58.05;;;22.83;;
31966;SDS011;18496;52.042;6.812;2023-11-18T02:03:21;60.33;;;24.05;;
31966;SDS011;18496;52.042;6.812;2023-11-18T02:05:25;56.25;;;22.02;;
31966;SDS011;18496;52.042;6.812;2023-11-18T02:07:28;56.22;;;22.42;;
31966;SDS011;18496;52.042;6.812;2023-11-18T02:09:32;60.60;;;22.83;;
31966;SDS011;18496;52.042;6.812;2023-11-18T02:11:39;54.72;;;21.73;;
31966;SDS011;18496;52.042;6.812;2023-11-18T02:13:55;64.65;;;24.20;;
31966;SDS011;18496;52.042;6.812;2023-11-18T02:16:06;58.30;;;21.40;;
31966;SDS011;18496;52.042;6.812;2023-11-18T02:18:11;58.50;;;23.08;;
31966;SDS011;18496;52.042;6.812;2023-11-18T02:20:16;67.90;;;22.58;;
31966;SDS011;18496;52.042;6.812;2023-11-18T02:22:24;62.75;;;23.27;;
31966;SDS011;18496;52.042;6.812;2023-11-18T02:24:29;53.33;;;21.83;;
31966;SDS011;18496;52.042;6.812;2023-11-18T02:26:36;54.08;;;20.75;;
31966;SDS011;18496;52.042;6.812;2023-11-18T02:28:39;54.50;;;21.65;;
31966;SDS011;18496;52.042;6.812;2023-11-18T02:30:43;60.25;;;22.08;;
31966;SDS011;18496;52.042;6.812;2023-11-18T02:32:54;62.83;;;22.17;;
31966;SDS011;18496;52.042;6.812;2023-11-18T02:37:33;50.65;;;21.27;;
31966;SDS011;18496;52.042;6.812;2023-11-18T02:39:42;60.35;;;23.45;;
31966;SDS011;18496;52.042;6.812;2023-11-18T02:41:49;64.85;;;23.13;;
31966;SDS011;18496;52.042;6.812;2023-11-18T02:43:55;55.70;;;21.83;;
31966;SDS011;18496;52.042;6.812;2023-11-18T02:46:01;49.40;;;20.73;;
31966;SDS011;18496;52.042;6.812;2023-11-18T02:48:05;59.97;;;22.08;;
31966;SDS011;18496;52.042;6.812;2023-11-18T02:50:09;52.53;;;21.27;;
31966;SDS011;18496;52.042;6.812;2023-11-18T02:52:18;52.70;;;20.73;;
31966;SDS011;18496;52.042;6.812;2023-11-18T02:54:22;55.78;;;20.42;;
31966;SDS011;18496;52.042;6.812;2023-11-18T02:56:26;46.88;;;20.20;;
31966;SDS011;18496;52.042;6.812;2023-11-18T02:58:29;57.13;;;20.52;;
31966;SDS011;18496;52.042;6.812;2023-11-18T03:00:33;51.58;;;21.02;;
31966;SDS011;18496;52.042;6.812;2023-11-18T03:02:37;57.38;;;21.50;;
31966;SDS011;18496;52.042;6.812;2023-11-18T03:04:42;49.20;;;19.35;;
31966;SDS011;18496;52.042;6.812;2023-11-18T03:06:47;62.05;;;21.13;;
31966;SDS011;18496;52.042;6.812;2023-11-18T03:08:50;51.17;;;21.95;;
31966;SDS011;18496;52.042;6.812;2023-11-18T03:10:56;53.55;;;20.65;;
31966;SDS011;18496;52.042;6.812;2023-11-18T03:13:01;54.03;;;20.60;;
31966;SDS011;18496;52.042;6.812;2023-11-18T03:15:05;51.10;;;21.33;;
31966;SDS011;18496;52.042;6.812;2023-11-18T03:17:12;52.78;;;19.77;;
31966;SDS011;18496;52.042;6.812;2023-11-18T03:19:16;50.10;;;20.58;;
31966;SDS011;18496;52.042;6.812;2023-11-18T03:21:20;58.47;;;20.10;;
31966;SDS011;18496;52.042;6.812;2023-11-18T03:23:24;53.22;;;22.10;;
31966;SDS011;18496;52.042;6.812;2023-11-18T03:25:27;50.10;;;19.20;;
31966;SDS011;18496;52.042;6.812;2023-11-18T03:27:31;57.00;;;21.23;;
31966;SDS011;18496;52.042;6.812;2023-11-18T03:29:35;56.95;;;21.92;;
31966;SDS011;18496;52.042;6.812;2023-11-18T03:31:39;53.20;;;20.98;;
31966;SDS011;18496;52.042;6.812;2023-11-18T03:33:43;50.25;;;21.02;;
31966;SDS011;18496;52.042;6.812;2023-11-18T03:35:46;49.97;;;21.55;;
31966;SDS011;18496;52.042;6.812;2023-11-18T03:37:51;54.70;;;20.95;;
31966;SDS011;18496;52.042;6.812;2023-11-18T03:39:54;47.15;;;20.23;;
31966;SDS011;18496;52.042;6.812;2023-11-18T03:41:58;51.35;;;20.40;;
31966;SDS011;18496;52.042;6.812;2023-11-18T03:44:03;61.55;;;23.48;;
31966;SDS011;18496;52.042;6.812;2023-11-18T03:46:07;53.05;;;22.10;;
31966;SDS011;18496;52.042;6.812;2023-11-18T03:48:11;52.38;;;22.42;;
31966;SDS011;18496;52.042;6.812;2023-11-18T03:50:17;54.08;;;21.20;;
31966;SDS011;18496;52.042;6.812;2023-11-18T03:52:21;70.97;;;22.80;;
31966;SDS011;18496;52.042;6.812;2023-11-18T03:54:25;61.58;;;22.33;;
31966;SDS011;18496;52.042;6.812;2023-11-18T03:56:28;53.58;;;20.92;;
31966;SDS011;18496;52.042;6.812;2023-11-18T03:58:32;58.67;;;21.67;;
31966;SDS011;18496;52.042;6.812;2023-11-18T04:00:37;53.13;;;21.40;;
31966;SDS011;18496;52.042;6.812;2023-11-18T04:02:41;60.50;;;22.00;;
31966;SDS011;18496;52.042;6.812;2023-11-18T04:04:44;58.60;;;22.73;;
31966;SDS011;18496;52.042;6.812;2023-11-18T04:06:48;69.28;;;23.90;;
31966;SDS011;18496;52.042;6.812;2023-11-18T04:08:52;59.78;;;22.42;;
31966;SDS011;18496;52.042;6.812;2023-11-18T04:10:55;62.83;;;21.90;;
31966;SDS011;18496;52.042;6.812;2023-11-18T04:12:59;57.05;;;22.45;;
31966;SDS011;18496;52.042;6.812;2023-11-18T04:15:03;48.33;;;21.90;;
31966;SDS011;18496;52.042;6.812;2023-11-18T04:17:08;59.17;;;22.45;;
31966;SDS011;18496;52.042;6.812;2023-11-18T04:19:12;56.30;;;22.13;;
31966;SDS011;18496;52.042;6.812;2023-11-18T04:21:16;57.05;;;20.77;;
31966;SDS011;18496;52.042;6.812;2023-11-18T04:23:20;54.63;;;20.13;;
31966;SDS011;18496;52.042;6.812;2023-11-18T04:25:23;53.78;;;20.20;;
31966;SDS011;18496;52.042;6.812;2023-11-18T04:27:28;58.78;;;21.40;;
31966;SDS011;18496;52.042;6.812;2023-11-18T04:29:32;54.28;;;21.52;;
31966;SDS011;18496;52.042;6.812;2023-11-18T04:31:39;56.45;;;20.42;;
31966;SDS011;18496;52.042;6.812;2023-11-18T04:33:43;55.83;;;21.23;;
31966;SDS011;18496;52.042;6.812;2023-11-18T04:35:47;49.40;;;20.48;;
31966;SDS011;18496;52.042;6.812;2023-11-18T04:37:50;53.03;;;20.77;;
31966;SDS011;18496;52.042;6.812;2023-11-18T04:39:54;56.20;;;20.50;;
31966;SDS011;18496;52.042;6.812;2023-11-18T04:41:58;52.60;;;21.20;;
31966;SDS011;18496;52.042;6.812;2023-11-18T04:44:02;59.72;;;21.27;;
31966;SDS011;18496;52.042;6.812;2023-11-18T04:46:06;55.13;;;20.13;;
31966;SDS011;18496;52.042;6.812;2023-11-18T04:48:09;61.78;;;20.98;;
31966;SDS011;18496;52.042;6.812;2023-11-18T04:50:13;49.85;;;21.95;;
31966;SDS011;18496;52.042;6.812;2023-11-18T04:52:17;56.45;;;19.10;;
31966;SDS011;18496;52.042;6.812;2023-11-18T04:54:21;52.47;;;20.70;;
31966;SDS011;18496;52.042;6.812;2023-11-18T04:56:25;58.17;;;20.63;;
31966;SDS011;18496;52.042;6.812;2023-11-18T04:58:29;62.38;;;21.50;;
31966;SDS011;18496;52.042;6.812;2023-11-18T05:00:33;56.25;;;21.42;;
31966;SDS011;18496;52.042;6.812;2023-11-18T05:02:37;58.60;;;22.08;;
31966;SDS011;18496;52.042;6.812;2023-11-18T05:04:41;56.85;;;20.77;;
31966;SDS011;18496;52.042;6.812;2023-11-18T05:06:45;59.42;;;21.80;;
31966;SDS011;18496;52.042;6.812;2023-11-18T05:08:49;59.78;;;22.10;;
31966;SDS011;18496;52.042;6.812;2023-11-18T05:10:52;57.08;;;22.02;;
31966;SDS011;18496;52.042;6.812;2023-11-18T05:12:57;54.65;;;21.45;;
31966;SDS011;18496;52.042;6.812;2023-11-18T05:15:01;56.15;;;21.15;;
31966;SDS011;18496;52.042;6.812;2023-11-18T05:17:06;60.70;;;20.92;;
31966;SDS011;18496;52.042;6.812;2023-11-18T05:19:10;62.22;;;21.55;;
31966;SDS011;18496;52.042;6.812;2023-11-18T05:21:13;52.78;;;20.90;;
31966;SDS011;18496;52.042;6.812;2023-11-18T05:23:17;50.90;;;20.30;;
31966;SDS011;18496;52.042;6.812;2023-11-18T05:25:21;55.40;;;22.60;;
31966;SDS011;18496;52.042;6.812;2023-11-18T05:27:24;53.55;;;21.35;;
31966;SDS011;18496;52.042;6.812;2023-11-18T05:29:30;57.72;;;20.98;;
31966;SDS011;18496;52.042;6.812;2023-11-18T05:31:35;57.30;;;21.50;;
31966;SDS011;18496;52.042;6.812;2023-11-18T05:33:40;53.90;;;21.55;;
31966;SDS011;18496;52.042;6.812;2023-11-18T05:35:44;59.35;;;21.23;;
31966;SDS011;18496;52.042;6.812;2023-11-18T05:37:52;47.47;;;20.95;;
31966;SDS011;18496;52.042;6.812;2023-11-18T05:39:57;53.00;;;20.42;;
31966;SDS011;18496;52.042;6.812;2023-11-18T05:42:09;54.58;;;21.48;;
31966;SDS011;18496;52.042;6.812;2023-11-18T05:44:13;54.40;;;21.13;;
31966;SDS011;18496;52.042;6.812;2023-11-18T05:46:23;54.35;;;21.27;;
31966;SDS011;18496;52.042;6.812;2023-11-18T05:48:32;54.33;;;21.55;;
31966;SDS011;18496;52.042;6.812;2023-11-18T05:50:36;60.97;;;21.95;;
31966;SDS011;18496;52.042;6.812;2023-11-18T05:52:39;54.45;;;21.33;;
31966;SDS011;18496;52.042;6.812;2023-11-18T05:54:44;51.88;;;20.85;;
31966;SDS011;18496;52.042;6.812;2023-11-18T05:56:47;50.10;;;21.65;;
31966;SDS011;18496;52.042;6.812;2023-11-18T05:58:51;58.55;;;22.20;;
31966;SDS011;18496;52.042;6.812;2023-11-18T06:00:58;58.60;;;22.08;;
31966;SDS011;18496;52.042;6.812;2023-11-18T06:03:03;52.47;;;22.25;;
31966;SDS011;18496;52.042;6.812;2023-11-18T06:05:06;54.75;;;22.35;;
31966;SDS011;18496;52.042;6.812;2023-11-18T06:07:11;53.30;;;22.80;;
31966;SDS011;18496;52.042;6.812;2023-11-18T06:09:17;51.63;;;21.02;;
31966;SDS011;18496;52.042;6.812;2023-11-18T06:11:24;55.22;;;21.15;;
31966;SDS011;18496;52.042;6.812;2023-11-18T06:13:27;55.05;;;22.65;;
31966;SDS011;18496;52.042;6.812;2023-11-18T06:15:31;54.05;;;21.90;;
31966;SDS011;18496;52.042;6.812;2023-11-18T06:17:36;51.95;;;21.55;;
31966;SDS011;18496;52.042;6.812;2023-11-18T06:19:40;55.78;;;21.95;;
31966;SDS011;18496;52.042;6.812;2023-11-18T06:21:44;54.38;;;22.02;;
31966;SDS011;18496;52.042;6.812;2023-11-18T06:23:47;51.08;;;20.48;;
31966;SDS011;18496;52.042;6.812;2023-11-18T06:25:51;51.30;;;21.40;;
31966;SDS011;18496;52.042;6.812;2023-11-18T06:27:55;49.65;;;21.67;;
31966;SDS011;18496;52.042;6.812;2023-11-18T06:29:58;43.97;;;19.77;;
31966;SDS011;18496;52.042;6.812;2023-11-18T06:32:02;55.38;;;19.58;;
31966;SDS011;18496;52.042;6.812;2023-11-18T06:34:08;49.10;;;20.58;;
31966;SDS011;18496;52.042;6.812;2023-11-18T06:38:22;54.28;;;20.58;;
31966;SDS011;18496;52.042;6.812;2023-11-18T06:40:25;51.13;;;20.50;;
31966;SDS011;18496;52.042;6.812;2023-11-18T06:42:30;47.15;;;20.08;;
31966;SDS011;18496;52.042;6.812;2023-11-18T06:44:34;45.08;;;19.27;;
31966;SDS011;18496;52.042;6.812;2023-11-18T06:46:38;43.70;;;18.88;;
31966;SDS011;18496;52.042;6.812;2023-11-18T06:48:42;56.65;;;21.05;;
31966;SDS011;18496;52.042;6.812;2023-11-18T06:50:46;52.03;;;20.55;;
31966;SDS011;18496;52.042;6.812;2023-11-18T06:52:50;43.88;;;19.85;;
31966;SDS011;18496;52.042;6.812;2023-11-18T06:54:54;43.03;;;18.80;;
31966;SDS011;18496;52.042;6.812;2023-11-18T06:56:58;45.88;;;18.92;;
31966;SDS011;18496;52.042;6.812;2023-11-18T06:59:01;44.33;;;18.38;;
31966;SDS011;18496;52.042;6.812;2023-11-18T07:01:06;48.70;;;18.88;;
31966;SDS011;18496;52.042;6.812;2023-11-18T07:03:11;43.60;;;19.13;;
31966;SDS011;18496;52.042;6.812;2023-11-18T07:05:15;38.47;;;16.88;;
31966;SDS011;18496;52.042;6.812;2023-11-18T07:07:18;38.15;;;17.80;;
31966;SDS011;18496;52.042;6.812;2023-11-18T07:09:22;37.75;;;17.52;;
31966;SDS011;18496;52.042;6.812;2023-11-18T07:11:29;40.22;;;18.63;;
31966;SDS011;18496;52.042;6.812;2023-11-18T07:13:35;42.97;;;18.08;;
31966;SDS011;18496;52.042;6.812;2023-11-18T07:15:39;41.70;;;18.45;;
31966;SDS011;18496;52.042;6.812;2023-11-18T07:17:43;40.35;;;17.70;;
31966;SDS011;18496;52.042;6.812;2023-11-18T07:19:47;42.60;;;18.45;;
31966;SDS011;18496;52.042;6.812;2023-11-18T07:21:50;40.03;;;18.73;;
31966;SDS011;18496;52.042;6.812;2023-11-18T07:23:54;43.30;;;18.45;;
31966;SDS011;18496;52.042;6.812;2023-11-18T07:25:58;41.08;;;17.60;;
31966;SDS011;18496;52.042;6.812;2023-11-18T07:28:02;39.20;;;17.20;;
31966;SDS011;18496;52.042;6.812;2023-11-18T07:30:06;43.05;;;18.65;;
31966;SDS011;18496;52.042;6.812;2023-11-18T07:32:13;41.92;;;19.35;;
31966;SDS011;18496;52.042;6.812;2023-11-18T07:34:17;40.10;;;17.92;;
31966;SDS011;18496;52.042;6.812;2023-11-18T07:36:21;40.65;;;18.83;;
31966;SDS011;18496;52.042;6.812;2023-11-18T07:38:24;37.33;;;16.48;;
31966;SDS011;18496;52.042;6.812;2023-11-18T07:40:30;44.03;;;19.00;;
31966;SDS011;18496;52.042;6.812;2023-11-18T07:42:36;39.33;;;18.88;;
31966;SDS011;18496;52.042;6.812;2023-11-18T07:44:41;43.90;;;17.55;;
31966;SDS011;18496;52.042;6.812;2023-11-18T07:46:45;46.90;;;17.65;;
31966;SDS011;18496;52.042;6.812;2023-11-18T07:48:49;48.75;;;18.15;;
31966;SDS011;18496;52.042;6.812;2023-11-18T07:50:55;36.83;;;16.42;;
31966;SDS011;18496;52.042;6.812;2023-11-18T07:53:00;45.15;;;17.85;;
31966;SDS011;18496;52.042;6.812;2023-11-18T07:55:04;43.65;;;18.77;;
31966;SDS011;18496;52.042;6.812;2023-11-18T07:57:08;44.25;;;18.65;;
31966;SDS011;18496;52.042;6.812;2023-11-18T07:59:13;43.65;;;18.55;;
31966;SDS011;18496;52.042;6.812;2023-11-18T08:01:19;43.28;;;18.42;;
31966;SDS011;18496;52.042;6.812;2023-11-18T08:03:24;46.03;;;18.55;;
31966;SDS011;18496;52.042;6.812;2023-11-18T08:05:27;37.55;;;16.70;;
31966;SDS011;18496;52.042;6.812;2023-11-18T08:07:31;31.15;;;15.60;;
31966;SDS011;18496;52.042;6.812;2023-11-18T08:09:35;43.13;;;17.10;;
31966;SDS011;18496;52.042;6.812;2023-11-18T08:11:41;39.13;;;18.40;;
31966;SDS011;18496;52.042;6.812;2023-11-18T08:13:45;41.88;;;17.55;;
31966;SDS011;18496;52.042;6.812;2023-11-18T08:15:50;44.00;;;19.20;;
31966;SDS011;18496;52.042;6.812;2023-11-18T08:17:55;41.72;;;17.55;;
31966;SDS011;18496;52.042;6.812;2023-11-18T08:19:59;53.20;;;20.02;;
31966;SDS011;18496;52.042;6.812;2023-11-18T08:22:03;38.70;;;16.98;;
31966;SDS011;18496;52.042;6.812;2023-11-18T08:24:07;37.97;;;16.85;;
31966;SDS011;18496;52.042;6.812;2023-11-18T08:26:11;40.55;;;17.50;;
31966;SDS011;18496;52.042;6.812;2023-11-18T08:28:15;42.47;;;18.27;;
31966;SDS011;18496;52.042;6.812;2023-11-18T08:30:19;44.60;;;18.55;;
31966;SDS011;18496;52.042;6.812;2023-11-18T08:32:23;40.55;;;17.10;;
31966;SDS011;18496;52.042;6.812;2023-11-18T08:34:27;39.40;;;17.58;;
31966;SDS011;18496;52.042;6.812;2023-11-18T08:36:31;44.60;;;17.27;;
31966;SDS011;18496;52.042;6.812;2023-11-18T08:38:36;39.90;;;17.67;;
31966;SDS011;18496;52.042;6.812;2023-11-18T08:40:40;37.50;;;17.20;;
31966;SDS011;18496;52.042;6.812;2023-11-18T08:42:46;40.28;;;18.08;;
31966;SDS011;18496;52.042;6.812;2023-11-18T08:44:52;37.03;;;17.15;;
31966;SDS011;18496;52.042;6.812;2023-11-18T08:46:58;40.47;;;18.25;;
31966;SDS011;18496;52.042;6.812;2023-11-18T08:49:02;41.25;;;17.40;;
31966;SDS011;18496;52.042;6.812;2023-11-18T08:51:13;40.38;;;17.20;;
31966;SDS011;18496;52.042;6.812;2023-11-18T08:53:19;40.05;;;17.38;;
31966;SDS011;18496;52.042;6.812;2023-11-18T08:55:29;43.00;;;17.33;;
31966;SDS011;18496;52.042;6.812;2023-11-18T08:57:42;46.40;;;18.00;;
31966;SDS011;18496;52.042;6.812;2023-11-18T09:00:02;45.78;;;19.75;;
31966;SDS011;18496;52.042;6.812;2023-11-18T09:02:11;45.78;;;19.27;;
31966;SDS011;18496;52.042;6.812;2023-11-18T09:04:18;42.75;;;19.00;;
31966;SDS011;18496;52.042;6.812;2023-11-18T09:06:23;43.90;;;18.33;;
31966;SDS011;18496;52.042;6.812;2023-11-18T09:08:35;40.85;;;18.58;;
31966;SDS011;18496;52.042;6.812;2023-11-18T09:10:41;44.33;;;18.30;;
31966;SDS011;18496;52.042;6.812;2023-11-18T09:12:47;42.80;;;18.65;;
31966;SDS011;18496;52.042;6.812;2023-11-18T09:14:51;37.33;;;17.30;;
31966;SDS011;18496;52.042;6.812;2023-11-18T09:16:55;35.50;;;17.17;;
31966;SDS011;18496;52.042;6.812;2023-11-18T09:18:59;45.47;;;18.35;;
31966;SDS011;18496;52.042;6.812;2023-11-18T09:21:05;36.72;;;17.08;;
31966;SDS011;18496;52.042;6.812;2023-11-18T09:23:09;39.83;;;16.85;;
31966;SDS011;18496;52.042;6.812;2023-11-18T09:25:13;42.03;;;19.25;;
31966;SDS011;18496;52.042;6.812;2023-11-18T09:27:17;41.95;;;18.15;;
31966;SDS011;18496;52.042;6.812;2023-11-18T09:29:21;47.15;;;18.25;;
31966;SDS011;18496;52.042;6.812;2023-11-18T09:31:27;46.17;;;19.35;;
31966;SDS011;18496;52.042;6.812;2023-11-18T09:33:31;53.08;;;18.85;;
31966;SDS011;18496;52.042;6.812;2023-11-18T09:35:35;41.63;;;17.88;;
31966;SDS011;18496;52.042;6.812;2023-11-18T09:37:39;54.80;;;19.23;;
31966;SDS011;18496;52.042;6.812;2023-11-18T09:39:46;88.57;;;22.17;;
31966;SDS011;18496;52.042;6.812;2023-11-18T09:41:49;41.47;;;18.00;;
31966;SDS011;18496;52.042;6.812;2023-11-18T09:43:54;40.88;;;17.52;;
31966;SDS011;18496;52.042;6.812;2023-11-18T09:46:03;40.88;;;17.25;;
31966;SDS011;18496;52.042;6.812;2023-11-18T09:48:18;41.40;;;16.15;;
31966;SDS011;18496;52.042;6.812;2023-11-18T09:50:28;46.75;;;17.77;;
31966;SDS011;18496;52.042;6.812;2023-11-18T09:52:35;44.28;;;18.42;;
31966;SDS011;18496;52.042;6.812;2023-11-18T09:55:06;42.22;;;16.65;;
31966;SDS011;18496;52.042;6.812;2023-11-18T09:59:31;40.30;;;17.88;;
31966;SDS011;18496;52.042;6.812;2023-11-18T10:01:38;34.33;;;17.58;;
31966;SDS011;18496;52.042;6.812;2023-11-18T10:03:47;37.80;;;17.35;;
31966;SDS011;18496;52.042;6.812;2023-11-18T10:05:52;45.50;;;17.38;;
31966;SDS011;18496;52.042;6.812;2023-11-18T10:07:57;54.78;;;18.70;;
31966;SDS011;18496;52.042;6.812;2023-11-18T10:10:05;35.63;;;16.90;;
31966;SDS011;18496;52.042;6.812;2023-11-18T10:12:17;36.95;;;17.13;;
31966;SDS011;18496;52.042;6.812;2023-11-18T10:14:27;35.00;;;16.30;;
31966;SDS011;18496;52.042;6.812;2023-11-18T10:16:30;42.05;;;16.52;;
31966;SDS011;18496;52.042;6.812;2023-11-18T10:18:34;40.72;;;16.92;;
31966;SDS011;18496;52.042;6.812;2023-11-18T10:22:44;42.05;;;17.58;;
31966;SDS011;18496;52.042;6.812;2023-11-18T10:24:49;43.47;;;17.15;;
31966;SDS011;18496;52.042;6.812;2023-11-18T10:26:55;45.33;;;17.95;;
31966;SDS011;18496;52.042;6.812;2023-11-18T10:29:02;33.58;;;16.67;;
31966;SDS011;18496;52.042;6.812;2023-11-18T10:31:11;36.72;;;17.33;;
31966;SDS011;18496;52.042;6.812;2023-11-18T10:33:22;41.55;;;16.08;;
31966;SDS011;18496;52.042;6.812;2023-11-18T10:35:26;40.47;;;16.63;;
31966;SDS011;18496;52.042;6.812;2023-11-18T10:37:31;34.45;;;16.45;;
31966;SDS011;18496;52.042;6.812;2023-11-18T10:39:34;39.17;;;16.10;;
31966;SDS011;18496;52.042;6.812;2023-11-18T10:41:42;37.08;;;15.70;;
31966;SDS011;18496;52.042;6.812;2023-11-18T10:43:46;40.88;;;17.92;;
31966;SDS011;18496;52.042;6.812;2023-11-18T10:45:51;35.10;;;16.42;;
31966;SDS011;18496;52.042;6.812;2023-11-18T10:48:07;34.95;;;16.50;;
31966;SDS011;18496;52.042;6.812;2023-11-18T10:50:11;36.83;;;16.48;;
31966;SDS011;18496;52.042;6.812;2023-11-18T10:52:15;36.33;;;16.83;;
31966;SDS011;18496;52.042;6.812;2023-11-18T10:54:20;35.58;;;16.30;;
31966;SDS011;18496;52.042;6.812;2023-11-18T10:56:24;36.30;;;16.15;;
31966;SDS011;18496;52.042;6.812;2023-11-18T10:58:35;35.70;;;15.30;;
31966;SDS011;18496;52.042;6.812;2023-11-18T11:02:59;37.70;;;16.50;;
31966;SDS011;18496;52.042;6.812;2023-11-18T11:05:03;36.63;;;17.55;;
31966;SDS011;18496;52.042;6.812;2023-11-18T11:07:07;35.88;;;16.55;;
31966;SDS011;18496;52.042;6.812;2023-11-18T11:09:13;41.72;;;16.67;;
31966;SDS011;18496;52.042;6.812;2023-11-18T11:11:20;37.95;;;17.52;;
31966;SDS011;18496;52.042;6.812;2023-11-18T11:13:25;38.20;;;15.07;;
31966;SDS011;18496;52.042;6.812;2023-11-18T11:15:31;35.60;;;15.38;;
31966;SDS011;18496;52.042;6.812;2023-11-18T11:17:36;29.73;;;14.38;;
31966;SDS011;18496;52.042;6.812;2023-11-18T11:19:47;25.75;;;13.93;;
31966;SDS011;18496;52.042;6.812;2023-11-18T11:22:07;30.30;;;13.88;;
31966;SDS011;18496;52.042;6.812;2023-11-18T11:24:31;32.78;;;14.07;;
31966;SDS011;18496;52.042;6.812;2023-11-18T11:27:00;31.98;;;13.90;;
31966;SDS011;18496;52.042;6.812;2023-11-18T11:29:25;36.42;;;13.43;;
31966;SDS011;18496;52.042;6.812;2023-11-18T11:35:48;32.60;;;13.85;;
31966;SDS011;18496;52.042;6.812;2023-11-18T11:38:00;33.90;;;14.70;;
31966;SDS011;18496;52.042;6.812;2023-11-18T11:40:12;25.08;;;12.93;;
31966;SDS011;18496;52.042;6.812;2023-11-18T11:42:24;29.58;;;13.57;;
31966;SDS011;18496;52.042;6.812;2023-11-18T11:44:30;35.45;;;13.73;;
31966;SDS011;18496;52.042;6.812;2023-11-18T11:46:34;28.75;;;12.65;;
31966;SDS011;18496;52.042;6.812;2023-11-18T11:48:40;27.83;;;13.02;;
31966;SDS011;18496;52.042;6.812;2023-11-18T11:53:20;23.17;;;10.70;;
31966;SDS011;18496;52.042;6.812;2023-11-18T11:55:31;21.33;;;11.77;;
31966;SDS011;18496;52.042;6.812;2023-11-18T11:57:40;27.17;;;12.13;;
31966;SDS011;18496;52.042;6.812;2023-11-18T12:01:56;19.73;;;10.90;;
31966;SDS011;18496;52.042;6.812;2023-11-18T12:04:04;20.08;;;10.48;;
31966;SDS011;18496;52.042;6.812;2023-11-18T12:06:23;21.52;;;11.75;;
31966;SDS011;18496;52.042;6.812;2023-11-18T12:08:27;20.30;;;10.57;;
31966;SDS011;18496;52.042;6.812;2023-11-18T12:10:33;26.60;;;12.18;;
31966;SDS011;18496;52.042;6.812;2023-11-18T12:12:38;22.10;;;11.20;;
31966;SDS011;18496;52.042;6.812;2023-11-18T12:14:58;23.85;;;11.38;;
31966;SDS011;18496;52.042;6.812;2023-11-18T12:17:38;26.65;;;12.23;;
31966;SDS011;18496;52.042;6.812;2023-11-18T12:19:58;28.90;;;12.45;;
31966;SDS011;18496;52.042;6.812;2023-11-18T12:22:02;23.48;;;10.90;;
31966;SDS011;18496;52.042;6.812;2023-11-18T12:24:15;20.35;;;10.73;;
31966;SDS011;18496;52.042;6.812;2023-11-18T12:26:39;25.40;;;12.98;;
31966;SDS011;18496;52.042;6.812;2023-11-18T12:28:43;28.45;;;11.18;;
31966;SDS011;18496;52.042;6.812;2023-11-18T12:30:48;27.10;;;12.05;;
31966;SDS011;18496;52.042;6.812;2023-11-18T12:35:11;24.83;;;11.27;;
31966;SDS011;18496;52.042;6.812;2023-11-18T12:37:33;19.75;;;9.57;;